메인 페이지
METAR-TAF:

METAR-TAF

공항 :

뉴올리언스, 루이지애나, 미국

위도: 29-59-34N, 경도: 090-15-03W, 고도: 1m

현재 날씨관측

예보는 31분 전, 07:53시(UTC)에 발표되었습니다.
6kt
온도 27°C
습도 94%
기압 1013 hPa
시정: 14.5km
고도 20000ft 상공 구름 보통

METAR: KMSY 200753Z 27006KT 9SM SCT200 27/26 A2990 RMK AO2 SLP129 T02720261

시각: 03:24 (08:24 UTC)

예보

예보는 3 시간 4분 전, 05:20시(UTC)에 발표되었습니다.
예보 대상 시간: 20일 06시부터 21일 12시까지 (UTC)
남서4kt
시정: 10km
고도 25000ft 상공 구름 조금
20일 1300시부터 (UTC)
서북서5kt
시정: 10km
고도 4500ft 상공 구름 조금
고도 25000ft 상공 구름 보통
21일 1000시부터 (UTC)
5kt
시정: 10km
고도 5000ft 상공 구름 보통

TAF: KMSY 200520Z 2006/2112 23004KT P6SM FEW250 FM201300 29005KT P6SM FEW045 SCT250 FM211000 26005KT P6SM SCT050

4,000개 이상의 공항 관측 자료 및 예보 (METAR 및 TAF 보고).

지도상에서 검색 가능한 기상관측소가 노란 점과 빨간 점으로 표시되어 있습니다.

기상관측소 명을 보려면 표시 위로 마우스를 이동하세요.

날씨 관측과 예보를 보려면 클릭하세요.

지도 변경 : 확대하려면 엑스 표시가 있는 녹색 버튼, 축소하려면 빼기 표시가 있는 녹색 버튼, 다음 페이지의 지도를 보려면 녹색 화살표를 클릭하세요.


METAR-TAF: